Flight Track Log - Related Links

Times and Time Zones

All times are in EDT time to prevent confusion due to time zone crossing. See the N682RW flight status page for this flight to view local times or setup timezone preferences in your user account.

Time Position Orientation Groundspeed Altitude Reporting Facility
EDT Latitude Longitude Course Direction KTS MPH feet Rate Location/Type
Thu 10:59:25 PM 42.3500 -70.9833 114° Southeast 180 207 900  Level KA90
Thu 11:00:43 PM 42.3167 -70.8833 114° Southeast 267 307 4,500 2,507 Climbing KA90
Thu 11:01:51 PM 42.3406 -70.7914 71° East 293 337 7,000 2,558 Climbing Boston Center
Thu 11:02:52 PM 42.4064 -70.7333 33° Northeast 275 316 10,000 2,607 Climbing Boston Center
Thu 11:03:53 PM 42.5022 -70.7278 North 292 336 12,300 2,727 Climbing Boston Center
Thu 11:04:53 PM 42.5725 -70.8444 309° West 286 329 15,500 2,700 Climbing Boston Center
Thu 11:05:53 PM 42.6219 -70.9531 302° West 346 398 17,700 1,966 Climbing Boston Center
Thu 11:06:52 PM 42.6656 -71.0961 293° West 379 436 19,400 2,017 Climbing Boston Center
Thu 11:07:52 PM 42.6672 -71.2542 271° West 394 453 21,700 2,100 Climbing Boston Center
Thu 11:08:52 PM 42.6750 -71.4150 274° West 416 479 23,600 1,900 Climbing Boston Center
Thu 11:09:52 PM 42.6828 -71.5956 273° West 435 501 25,500 1,700 Climbing Boston Center
Thu 11:10:52 PM 42.6944 -71.7678 275° West 451 519 27,000 1,388 Climbing Boston Center
Thu 11:11:53 PM 42.7056 -71.9456 275° West 462 532 28,300 1,438 Climbing Boston Center
Thu 11:12:53 PM 42.7167 -72.1264 275° West 474 545 29,900 1,627 Climbing Boston Center
Thu 11:13:51 PM 42.7317 -72.2875 277° West 482 555 31,500 1,525 Climbing Boston Center
Thu 11:14:51 PM 42.7422 -72.4628 275° West 482 555 32,900 1,190 Climbing Boston Center
Thu 11:15:52 PM 42.7483 -72.6522 273° West 470 541 33,900 541 Climbing Boston Center
Thu 11:16:53 PM 42.7581 -72.8303 274° West 468 539 34,000 50 Climbing Boston Center
Thu 11:17:53 PM 42.7700 -73.0058 275° West 496 571 34,000  Level Boston Center
Thu 11:18:51 PM 42.7794 -73.1897 274° West 501 577 34,000  Level Boston Center
Thu 11:19:51 PM 42.7883 -73.3736 274° West 501 577 34,000  Level Boston Center
Thu 11:20:51 PM 42.7956 -73.5181 274° West 495 570 34,000  Level Boston Center
Thu 11:21:53 PM 42.8033 -73.7531 273° West 495 570 34,000  Level Boston Center
Thu 11:22:51 PM 42.8117 -73.9372 274° West 490 564 34,000  Level Boston Center
Thu 11:23:53 PM 42.8194 -74.1131 274° West 484 557 34,000  Level Boston Center
Thu 11:25:04 PM 42.8286 -74.3314 273° West 479 551 34,000  Level Boston Center
Thu 11:26:05 PM 42.8358 -74.5128 273° West 479 551 34,000  Level Boston Center
Thu 11:27:03 PM 42.8428 -74.6942 273° West 479 551 34,000  Level Boston Center
Thu 11:28:04 PM 42.8497 -74.8672 273° West 479 551 34,000 -50 Level Boston Center
Thu 11:29:04 PM 42.8561 -75.0458 273° West 474 545 33,900  Descending Boston Center
Thu 11:30:17 PM 42.8625 -75.2247 273° West 474 545 34,000 46 Climbing Boston Center
Thu 11:31:15 PM 42.8697 -75.4319 273° West 474 545 34,000  Level Boston Center
Thu 11:32:16 PM 42.8753 -75.6050 273° West 469 540 34,000  Level Boston Center
Thu 11:33:18 PM 42.8806 -75.7839 272° West 469 540 34,000  Level Boston Center
Thu 11:35:40 PM 42.8933 -76.2111 272° West 468 539 34,000  Level Cleveland Center
Thu 11:36:40 PM 42.8978 -76.3875 272° West 466 536 34,000  Level Cleveland Center
Thu 11:37:41 PM 42.9011 -76.5642 272° West 466 536 34,000  Level Cleveland Center
Thu 11:38:42 PM 42.9044 -76.7272 272° West 466 536 34,000  Level Cleveland Center
Thu 11:39:43 PM 42.9075 -76.9028 271° West 467 537 34,000  Level Cleveland Center
Thu 11:40:44 PM 42.9111 -77.0769 272° West 464 534 34,000  Level Cleveland Center
Thu 11:41:45 PM 42.9139 -77.2500 271° West 462 532 34,000  Level Cleveland Center
Thu 11:42:46 PM 42.9086 -77.4247 268° West 465 535 34,000  Level Cleveland Center
Thu 11:43:47 PM 42.8986 -77.6331 266° West 466 536 34,000  Level Cleveland Center
Thu 11:44:48 PM 42.8911 -77.8061 267° West 466 536 34,000  Level Cleveland Center
Thu 11:45:48 PM 42.8822 -77.9792 266° West 462 532 34,000  Level Cleveland Center
Thu 11:46:49 PM 42.8744 -78.1500 267° West 455 524 34,000  Level Cleveland Center
Thu 11:47:50 PM 42.8653 -78.3200 266° West 454 522 34,000  Level Cleveland Center
Thu 11:48:51 PM 42.8567 -78.4919 266° West 456 525 34,000  Level Cleveland Center
Thu 11:49:52 PM 42.8481 -78.6617 266° West 452 520 34,000  Level Cleveland Center
Thu 11:50:53 PM 42.8386 -78.8317 266° West 452 520 34,000  Level Cleveland Center
Thu 11:51:53 PM 42.8303 -79.0000 266° West 447 514 34,000  Level Cleveland Center
Thu 11:52:54 PM 42.8203 -79.1681 265° West 446 513 34,000  Level Cleveland Center
Thu 11:53:55 PM 42.8083 -79.3675 265° West 442 509 34,000  Level Cleveland Center
Thu 11:54:56 PM 42.7978 -79.5344 265° West 443 510 34,000  Level Cleveland Center
Thu 11:55:56 PM 42.7872 -79.7006 265° West 440 506 34,000  Level Cleveland Center
Thu 11:56:57 PM 42.7761 -79.8664 265° West 442 509 34,000  Level Cleveland Center
Thu 11:57:58 PM 42.7650 -80.0267 265° West 451 519 34,000  Level Cleveland Center
Thu 11:58:58 PM 42.7542 -80.1964 265° West 447 514 34,000  Level Cleveland Center
Thu 11:59:59 PM 42.7422 -80.3667 265° West 452 520 34,000  Level Cleveland Center
Fri 12:01:00 AM 42.7314 -80.5364 265° West 448 516 34,000 -595 Level Cleveland Center
Fri 12:02:00 AM 42.7183 -80.7008 264° West 438 504 32,800 -1,339 Descending Cleveland Center
Fri 12:03:01 AM 42.7072 -80.8722 265° West 451 519 31,300 -1,686 Descending Cleveland Center
Fri 12:04:01 AM 42.6881 -81.0433 261° West 455 524 29,400 -1,934 Descending Cleveland Center
Fri 12:05:02 AM 42.6675 -81.2153 261° West 457 526 27,400 -1,820 Descending Cleveland Center
Fri 12:06:03 AM 42.6472 -81.3878 261° West 460 529 25,700 -1,934 Descending Cleveland Center
Fri 12:07:03 AM 42.6214 -81.5542 258° West 451 519 23,500 -2,033 Descending Cleveland Center
Fri 12:08:04 AM 42.5914 -81.7142 256° West 438 504 21,600 -1,537 Descending Cleveland Center
Fri 12:09:04 AM 42.5639 -81.8714 257° West 419 482 20,400 -1,438 Descending Cleveland Center
Fri 12:10:05 AM 42.5372 -82.0203 256° West 410 472 18,700 -2,182 Descending Cleveland Center
Fri 12:11:05 AM 42.5117 -82.1633 256° West 395 455 16,000 -2,579 Descending Cleveland Center
Fri 12:12:06 AM 42.4861 -82.3006 256° West 383 441 13,500 -1,934 Descending Cleveland Center
Fri 12:13:06 AM 42.4619 -82.4342 256° West 372 428 12,100 -1,400 Descending Cleveland Center
Fri 12:15:00 AM 42.3510 -82.6905 253° West  Level FlightAware Approximate
Fri 12:22:00 AM 42.2000 -83.3500 255° West  Level FlightAware Approximate
Fri 12:23:00 AM 42.2124 -83.3534 255° West  Level Estimated
Fri 12:24:00 AM 42.2124 -83.3534 255° West  Level Estimated
Fri 12:25:00 AM 42.2124 -83.3534 255° West  Level Estimated
Fri 12:26:00 AM 42.2124 -83.3534 255° West  Level Estimated
Fri 12:27:00 AM 42.2124 -83.3534 255° West  Level Estimated
Fri 12:28:00 AM 42.2124 -83.3534 255° West  Level Estimated
Fri 12:29:00 AM 42.2124 -83.3534 255° West  Level Estimated
Fri 12:30:00 AM 42.2124 -83.3534 255° West  Level Estimated
Fri 12:31:00 AM 42.2124 -83.3534 255° West  Level Estimated

Login

Don't have an account? Register now (free) for customized features, flight alerts, and more!